New Effington, South Dakota
Current Conditions -  °F | °C
As of 2:16 PM on Thursday 29 Jan 2015 (Local Time) from KETH Reporting Station
Light Snow Light Snow  
Wind Chill:   Ceiling: 2100
Heat Index: 18°   Visibility: 10mi
Dew Point: 12°   Wind: 20mph
Humidity: 79%   Direction: 330°NNW
Pressure: 30.48"   Gusts: 26mph
Location:  45.86°N, 96.92°W
Report Text: KETH 292016Z AUTO 33017G23KT 10SM -SN OVC021 M08/M11 A3048 RMK AO2
Loading
Personal Weather Stations






























Interactive Weather Map New forecast layout! Learn more

10-Day Weather Forecast

Advertisements
Track Severe Weather on mobile